Time;durP1;ratioP1;P1;durP2;ratioP2;P2;SDS_P1;SDS_P2;PMS_P1;PMS_P2;Temp;Humidity;BMP_temperature;BMP_pressure;BME280_temperature;BME280_humidity;BME280_pressure;Samples;Min_cycle;Max_cycle;Signal;HPM_P1;HPM_P2
2022/08/25 00:01:59;;;;;;;4.90;3.30;;;;;;;17.40;65.86;99292.05;104717;1277;76983;-24
2022/08/25 00:04:30;;;;;;;9.40;3.70;;;;;;;17.24;66.32;99295.06;104618;1277;75132;-24
2022/08/25 00:07:00;;;;;;;5.70;3.40;;;;;;;17.07;67.01;99296.82;104428;1277;61195;-24
2022/08/25 00:09:30;;;;;;;10.00;3.20;;;;;;;16.90;67.60;99292.48;104348;1277;61975;-24
2022/08/25 00:11:57;;;;;;;8.30;3.30;;;;;;;17.05;67.46;99294.04;104297;1278;75875;-24
2022/08/25 00:14:28;;;;;;;9.60;3.40;;;;;;;17.29;66.51;99295.27;104619;1277;75937;-24
2022/08/25 00:16:55;;;;;;;12.20;4.00;;;;;;;17.25;66.67;99296.05;104500;1276;75309;-24
2022/08/25 00:19:24;;;;;;;10.00;4.30;;;;;;;17.13;67.03;99293.48;104497;1277;61765;-24
2022/08/25 00:21:52;;;;;;;6.90;3.70;;;;;;;17.01;67.29;99294.86;104429;1277;63080;-24
2022/08/25 00:24:19;;;;;;;8.10;3.90;;;;;;;16.84;68.12;99296.77;104618;1277;76484;-23
2022/08/25 00:26:48;;;;;;;12.70;3.90;;;;;;;16.73;68.41;99300.31;104300;1277;74712;-24
2022/08/25 00:29:15;;;;;;;5.80;2.90;;;;;;;16.61;68.96;99299.80;104357;1277;74229;-23
2022/08/25 00:31:42;;;;;;;10.50;2.90;;;;;;;16.85;68.02;99298.09;104676;1277;61503;-23
2022/08/25 00:34:13;;;;;;;6.80;3.20;;;;;;;17.30;66.63;99298.33;104623;1277;62505;-23
2022/08/25 00:36:40;;;;;;;7.90;3.50;;;;;;;17.30;66.04;99296.59;104332;1278;75741;-23
2022/08/25 00:39:08;;;;;;;7.40;3.60;;;;;;;17.21;66.58;99301.76;104898;1271;76997;-23
2022/08/25 00:41:35;;;;;;;16.10;4.40;;;;;;;16.94;67.18;99299.73;104856;1274;74084;-24
2022/08/25 00:44:04;;;;;;;5.90;3.90;;;;;;;16.71;68.62;99303.17;105085;1271;62133;-23
2022/08/25 00:46:40;;;;;;;12.30;4.40;;;;;;;16.55;69.20;99301.81;104966;1271;62029;-23
2022/08/25 00:49:38;;;;;;;7.30;3.70;;;;;;;16.46;69.37;99302.73;104949;1271;76042;-23
2022/08/25 00:52:18;;;;;;;8.00;2.90;;;;;;;16.48;69.58;99301.81;104888;1271;75613;-23
2022/08/25 00:54:54;;;;;;;9.30;4.10;;;;;;;17.02;67.47;99302.58;104862;1271;75417;-23
2022/08/25 00:57:30;;;;;;;10.20;4.10;;;;;;;17.11;66.85;99303.48;104815;1271;61111;-23
2022/08/25 01:00:05;;;;;;;9.10;3.80;;;;;;;16.89;67.40;99304.35;104979;1271;61923;-24
2022/08/25 01:02:32;;;;;;;8.20;3.90;;;;;;;16.67;68.56;99305.33;104912;1271;75733;-23
2022/08/25 01:04:59;;;;;;;7.70;3.80;;;;;;;16.48;69.44;99305.04;105114;1271;77066;-24
2022/08/25 01:07:26;;;;;;;7.50;3.90;;;;;;;16.34;69.91;99304.58;104991;1271;74305;-23
2022/08/25 01:09:54;;;;;;;5.80;3.60;;;;;;;16.27;70.24;99301.12;104728;1271;61694;-23
2022/08/25 01:12:21;;;;;;;7.40;3.20;;;;;;;16.26;70.05;99295.02;104628;1274;63009;-23
2022/08/25 01:14:49;;;;;;;6.80;2.90;;;;;;;16.63;69.23;99296.81;104929;1271;76357;-23
2022/08/25 01:17:16;;;;;;;7.50;3.10;;;;;;;17.10;67.34;99295.29;104911;1271;77440;-23
2022/08/25 01:19:43;;;;;;;7.10;3.70;;;;;;;17.16;66.65;99292.96;104590;1273;75331;-23
2022/08/25 01:22:10;;;;;;;7.80;3.30;;;;;;;16.78;67.72;99296.64;104690;1271;63337;-23
2022/08/25 01:24:49;;;;;;;12.00;4.20;;;;;;;16.34;69.69;99299.74;104927;1271;63096;-23
2022/08/25 01:27:16;;;;;;;10.80;4.30;;;;;;;16.00;70.85;99302.59;104623;1271;76326;-24
2022/08/25 01:29:43;;;;;;;14.30;4.60;;;;;;;15.83;71.55;99300.73;104694;1274;76344;-24
2022/08/25 01:32:12;;;;;;;6.50;3.20;;;;;;;15.75;72.27;99298.91;104773;1271;74615;-24
2022/08/25 01:34:40;;;;;;;9.10;3.40;;;;;;;16.13;70.88;99297.33;105038;1271;61849;-24
2022/08/25 01:37:08;;;;;;;7.60;3.40;;;;;;;16.54;69.18;99295.64;104824;1271;62366;-24
2022/08/25 01:39:39;;;;;;;6.80;3.70;;;;;;;16.52;69.04;99299.17;105082;1271;75597;-24
2022/08/25 01:42:08;;;;;;;12.20;4.80;;;;;;;16.38;69.85;99298.61;105064;1271;75967;-24
2022/08/25 01:44:37;;;;;;;13.20;4.20;;;;;;;16.10;70.33;99295.84;104747;1271;74204;-24
2022/08/25 01:47:04;;;;;;;6.20;3.60;;;;;;;15.93;71.42;99297.20;104741;1271;62077;-24
2022/08/25 01:49:32;;;;;;;7.20;3.70;;;;;;;15.83;71.81;99297.13;104627;1274;63838;-24
2022/08/25 01:52:19;;;;;;;5.10;2.80;;;;;;;15.89;71.53;99300.91;104860;1271;74477;-25
2022/08/25 01:54:47;;;;;;;12.40;3.50;;;;;;;16.57;69.06;99300.38;105074;1271;76779;-24
2022/08/25 01:57:14;;;;;;;4.60;2.90;;;;;;;16.76;68.43;99295.52;104841;1273;73993;-24
2022/08/25 01:59:41;;;;;;;9.70;3.80;;;;;;;16.56;69.21;99298.94;105079;1274;62792;-24
2022/08/25 02:02:08;;;;;;;7.40;4.00;;;;;;;16.33;69.82;99298.03;105058;1274;61975;-24
2022/08/25 02:04:36;;;;;;;9.20;4.20;;;;;;;15.98;70.94;99291.25;104905;1273;75750;-24
2022/08/25 02:07:05;;;;;;;5.90;3.50;;;;;;;15.70;72.43;99296.45;104979;1273;76702;-24
2022/08/25 02:09:33;;;;;;;5.40;3.80;;;;;;;15.56;73.14;99294.08;104701;1274;75183;-24
2022/08/25 02:12:00;;;;;;;5.60;2.90;;;;;;;15.51;73.29;99294.41;104638;1274;62707;-24
2022/08/25 02:14:27;;;;;;;13.60;4.00;;;;;;;15.93;71.55;99292.77;104786;1274;61760;-24
2022/08/25 02:16:54;;;;;;;11.80;4.00;;;;;;;16.13;70.72;99291.88;104889;1272;76362;-24
2022/08/25 02:19:23;;;;;;;11.50;3.90;;;;;;;16.07;70.89;99291.38;104854;1274;77004;-24
2022/08/25 02:21:50;;;;;;;8.50;3.80;;;;;;;15.95;71.31;99290.45;104550;1274;73074;-24
2022/08/25 02:24:17;;;;;;;7.00;3.60;;;;;;;15.77;71.67;99288.20;104721;1274;63231;-24
2022/08/25 02:26:44;;;;;;;10.80;4.40;;;;;;;15.62;72.43;99286.34;104836;1274;63446;-24
2022/08/25 02:29:11;;;;;;;11.50;3.30;;;;;;;15.47;73.40;99288.00;104736;1273;76630;-24
2022/08/25 02:31:39;;;;;;;14.50;3.20;;;;;;;15.86;71.97;99289.79;104781;1274;77378;-25
2022/08/25 02:34:06;;;;;;;9.80;3.60;;;;;;;16.34;70.06;99291.50;104843;1274;74327;-24
2022/08/25 02:36:33;;;;;;;8.30;3.00;;;;;;;16.40;69.52;99292.29;104738;1274;63149;-24
2022/08/25 02:39:01;;;;;;;11.20;4.10;;;;;;;16.22;70.21;99288.33;105064;1274;61994;-24
2022/08/25 02:41:29;;;;;;;7.00;3.70;;;;;;;15.87;71.08;99289.54;105120;1274;76638;-24
2022/08/25 02:43:58;;;;;;;8.70;4.30;;;;;;;15.59;72.43;99290.52;104771;1273;77027;-24
2022/08/25 02:46:26;;;;;;;12.00;3.80;;;;;;;15.24;73.72;99289.03;104635;1275;75591;-24
2022/08/25 02:48:54;;;;;;;15.70;4.60;;;;;;;15.06;74.84;99290.20;104700;1274;62673;-24
2022/08/25 02:51:21;;;;;;;17.50;7.40;;;;;;;15.41;73.98;99288.60;104580;1274;62781;-24
2022/08/25 02:53:48;;;;;;;36.60;20.00;;;;;;;15.67;72.90;99287.50;104653;1273;75550;-24
2022/08/25 02:56:17;;;;;;;41.20;19.60;;;;;;;15.63;72.93;99290.14;104861;1271;76714;-25
2022/08/25 02:58:44;;;;;;;78.90;46.10;;;;;;;15.53;73.45;99291.81;104602;1274;74501;-25
2022/08/25 03:01:12;;;;;;;144.10;79.60;;;;;;;15.36;74.06;99294.36;104765;1274;62789;-24
2022/08/25 03:03:40;;;;;;;105.10;55.30;;;;;;;15.23;74.34;99299.04;104777;1274;61979;-24
2022/08/25 03:06:11;;;;;;;37.40;20.10;;;;;;;15.05;75.31;99295.54;104607;1274;75688;-24
2022/08/25 03:08:38;;;;;;;19.40;10.20;;;;;;;15.52;73.85;99294.23;104691;1272;77028;-24
2022/08/25 03:11:05;;;;;;;23.40;10.20;;;;;;;15.99;71.69;99291.86;104813;1274;75576;-24
2022/08/25 03:13:32;;;;;;;19.40;11.10;;;;;;;16.02;71.15;99287.19;104838;1273;62789;-24
2022/08/25 03:16:00;;;;;;;27.80;14.70;;;;;;;15.85;71.86;99289.56;104736;1271;61624;-24
2022/08/25 03:18:29;;;;;;;13.10;7.20;;;;;;;15.68;72.61;99291.22;104633;1271;75592;-24
2022/08/25 03:20:56;;;;;;;12.40;6.70;;;;;;;15.53;72.71;99291.95;104821;1271;75956;-24
2022/08/25 03:23:23;;;;;;;12.90;6.70;;;;;;;15.34;73.47;99294.55;104748;1271;74058;-24
2022/08/25 03:28:40;;;;;;;24.30;10.60;;;;;;;15.68;73.45;99289.84;105044;1271;63284;-24
2022/08/25 03:31:07;;;;;;;70.10;28.80;;;;;;;16.09;71.51;99288.19;105013;1274;76829;-24
2022/08/25 03:33:34;;;;;;;54.10;23.20;;;;;;;16.14;71.37;99287.95;105044;1271;75740;-24
2022/08/25 03:36:02;;;;;;;81.80;38.70;;;;;;;16.03;71.70;99287.09;104651;1274;75285;-24
2022/08/25 03:38:29;;;;;;;80.10;36.80;;;;;;;15.92;72.00;99289.88;104903;1272;62540;-24
2022/08/25 03:40:56;;;;;;;65.40;34.20;;;;;;;15.90;71.73;99293.25;105067;1274;62442;-24
2022/08/25 03:43:23;;;;;;;75.70;38.80;;;;;;;15.76;72.52;99295.31;105074;1274;75326;-24
2022/08/25 03:45:50;;;;;;;33.40;15.80;;;;;;;15.62;72.99;99294.59;104918;1274;76864;-24
2022/08/25 03:48:17;;;;;;;26.60;13.20;;;;;;;16.04;72.13;99292.73;104697;1274;75377;-24
2022/08/25 03:50:49;;;;;;;28.50;13.80;;;;;;;16.62;70.03;99290.08;104919;1274;61827;-25
2022/08/25 03:53:18;;;;;;;33.30;18.40;;;;;;;16.92;69.12;99288.77;104787;1271;61972;-24
2022/08/25 03:55:46;;;;;;;35.00;17.20;;;;;;;16.90;68.81;99289.44;104796;1274;76558;-24
2022/08/25 03:58:13;;;;;;;56.50;27.60;;;;;;;16.94;68.35;99293.05;104901;1271;76852;-24
2022/08/25 04:00:40;;;;;;;103.80;51.20;;;;;;;16.87;68.61;99291.59;104821;1274;75461;-24
2022/08/25 04:03:08;;;;;;;76.60;38.40;;;;;;;16.68;69.59;99290.16;104906;1271;61918;-24
2022/08/25 04:05:35;;;;;;;31.30;16.20;;;;;;;16.84;69.18;99290.06;104913;1274;62067;-23
2022/08/25 04:08:02;;;;;;;26.90;14.70;;;;;;;17.54;67.52;99287.38;104965;1271;76883;-24
2022/08/25 04:10:30;;;;;;;41.40;20.40;;;;;;;18.36;64.40;99286.33;104835;1274;77081;-23
2022/08/25 04:12:58;;;;;;;28.10;13.80;;;;;;;18.60;63.14;99286.50;104792;1271;73390;-23
2022/08/25 04:15:25;;;;;;;39.10;19.90;;;;;;;18.48;63.67;99286.00;104617;1271;62672;-23
2022/08/25 04:17:57;;;;;;;32.30;16.80;;;;;;;18.31;63.73;99285.02;104599;1271;62037;-24
2022/08/25 04:20:25;;;;;;;37.50;19.50;;;;;;;18.27;64.01;99282.06;104936;1274;76467;-24
2022/08/25 04:22:52;;;;;;;70.00;35.70;;;;;;;18.34;64.17;99280.88;105041;1271;75957;-24
2022/08/25 04:25:19;;;;;;;36.70;18.50;;;;;;;18.41;63.98;99281.31;105055;1274;74422;-23
2022/08/25 04:27:46;;;;;;;21.60;10.50;;;;;;;18.40;63.95;99280.42;104770;1274;63071;-23
2022/08/25 04:30:14;;;;;;;25.70;9.80;;;;;;;18.38;63.94;99280.96;104873;1271;61915;-23
2022/08/25 04:32:41;;;;;;;16.10;8.50;;;;;;;18.33;64.12;99281.41;104716;1274;75296;-24
2022/08/25 04:35:08;;;;;;;14.10;6.90;;;;;;;18.44;64.28;99281.52;105085;1271;76827;-23
2022/08/25 04:37:35;;;;;;;13.60;6.40;;;;;;;18.51;64.19;99282.38;104693;1271;75160;-23
2022/08/25 04:40:03;;;;;;;10.30;5.60;;;;;;;18.59;63.58;99283.20;104721;1274;63089;-24
2022/08/25 04:42:31;;;;;;;13.80;5.20;;;;;;;18.44;63.88;99280.65;104672;1271;62878;-23
2022/08/25 04:44:58;;;;;;;11.80;4.60;;;;;;;18.54;63.93;99279.71;104749;1271;76614;-24
2022/08/25 04:47:25;;;;;;;7.80;4.90;;;;;;;18.56;63.51;99276.20;104965;1271;76996;-23
2022/08/25 04:49:54;;;;;;;11.10;4.50;;;;;;;18.62;63.90;99274.27;105084;1271;75552;-23
2022/08/25 04:52:21;;;;;;;8.90;4.30;;;;;;;18.43;64.20;99270.98;105061;1274;63104;-23
2022/08/25 04:54:48;;;;;;;8.80;4.40;;;;;;;18.67;63.87;99271.94;105062;1271;63193;-23
2022/08/25 04:57:15;;;;;;;10.00;4.40;;;;;;;18.79;63.27;99266.60;104778;1271;75467;-24
2022/08/25 04:59:42;;;;;;;7.70;4.00;;;;;;;18.87;62.71;99271.65;105045;1274;77110;-24
2022/08/25 05:02:09;;;;;;;6.50;3.70;;;;;;;19.03;62.43;99268.36;104892;1271;75138;-23
2022/08/25 05:04:36;;;;;;;15.80;4.60;;;;;;;19.11;62.17;99264.75;104903;1271;62061;-23
2022/08/25 05:07:04;;;;;;;8.20;3.90;;;;;;;19.29;61.98;99269.41;104980;1271;63079;-24
2022/08/25 05:09:30;;;;;;;19.60;4.10;;;;;;;19.47;61.53;99261.45;104785;1271;75400;-23
2022/08/25 05:12:00;;;;;;;10.80;4.20;;;;;;;19.47;61.51;99261.59;104741;1271;76195;-24
2022/08/25 05:14:28;;;;;;;8.90;4.50;;;;;;;19.52;61.08;99257.52;104587;1271;74125;-23
2022/08/25 05:16:56;;;;;;;11.20;4.50;;;;;;;19.53;61.26;99256.85;104668;1274;63075;-23
2022/08/25 05:19:23;;;;;;;10.20;4.00;;;;;;;19.75;60.52;99257.36;105080;1271;63696;-23
2022/08/25 05:21:50;;;;;;;7.80;4.80;;;;;;;19.91;60.05;99259.32;104930;1274;74412;-23
2022/08/25 05:24:18;;;;;;;11.10;4.20;;;;;;;20.02;60.23;99257.73;104768;1271;75731;-23
2022/08/25 05:26:45;;;;;;;7.70;4.40;;;;;;;20.22;59.34;99259.10;104756;1271;75417;-23
2022/08/25 05:29:13;;;;;;;8.20;4.20;;;;;;;20.32;58.54;99254.02;105083;1271;63350;-23
2022/08/25 05:31:41;;;;;;;8.40;3.70;;;;;;;20.51;58.87;99260.41;105082;1271;61935;-23
2022/08/25 05:34:17;;;;;;;11.50;3.70;;;;;;;20.70;57.53;99258.12;104961;1271;76588;-23
2022/08/25 05:36:44;;;;;;;9.80;4.00;;;;;;;20.78;57.52;99261.42;104743;1271;75956;-23
2022/08/25 05:39:11;;;;;;;9.70;4.10;;;;;;;21.00;57.33;99263.21;104852;1274;75130;-24
2022/08/25 05:41:38;;;;;;;8.30;4.10;;;;;;;21.07;56.65;99262.68;105072;1274;63177;-23
2022/08/25 05:44:06;;;;;;;11.20;4.20;;;;;;;21.11;56.41;99262.92;104831;1274;62998;-23
2022/08/25 05:46:33;;;;;;;9.60;4.50;;;;;;;21.15;56.25;99261.40;104772;1273;76249;-24
2022/08/25 05:49:00;;;;;;;9.00;3.60;;;;;;;21.33;55.73;99263.64;105105;1271;73397;-23
2022/08/25 05:51:27;;;;;;;8.60;4.10;;;;;;;21.26;54.69;99260.90;105064;1274;75421;-23
2022/08/25 05:53:54;;;;;;;14.60;3.60;;;;;;;21.37;54.53;99262.17;105042;1271;62767;-23
2022/08/25 05:56:22;;;;;;;11.10;3.90;;;;;;;21.38;53.76;99263.13;104942;1272;63084;-24
2022/08/25 05:58:49;;;;;;;8.90;3.80;;;;;;;21.47;54.20;99264.48;104710;1274;74810;-24
2022/08/25 06:04:12;;;;;;;12.60;4.40;;;;;;;21.57;54.00;99268.23;104522;1271;73427;-24
2022/08/25 06:06:39;;;;;;;9.70;3.80;;;;;;;21.74;53.94;99268.30;104834;1272;61781;-24
2022/08/25 06:09:07;;;;;;;7.20;3.30;;;;;;;21.93;53.25;99269.77;104946;1271;61916;-24
2022/08/25 06:11:36;;;;;;;13.90;4.80;;;;;;;22.02;53.17;99267.63;105082;1271;76324;-24
2022/08/25 06:14:03;;;;;;;10.80;4.00;;;;;;;22.03;53.22;99268.86;104776;1271;77128;-24
2022/08/25 06:16:30;;;;;;;12.60;4.50;;;;;;;22.08;52.38;99272.11;104858;1273;75257;-24
2022/08/25 06:18:57;;;;;;;7.50;3.90;;;;;;;22.02;52.52;99273.83;104800;1271;63083;-24
2022/08/25 06:21:24;;;;;;;8.30;3.80;;;;;;;22.18;52.96;99273.24;104759;1274;62894;-24
2022/08/25 06:23:51;;;;;;;10.50;4.10;;;;;;;22.29;52.36;99271.11;104733;1271;76962;-24
2022/08/25 06:26:18;;;;;;;12.20;4.10;;;;;;;22.32;52.54;99272.70;105097;1271;75064;-24
2022/08/25 06:28:49;;;;;;;11.00;3.40;;;;;;;22.32;51.93;99267.94;104829;1272;74372;-23
2022/08/25 06:31:16;;;;;;;9.70;3.60;;;;;;;22.39;53.06;99268.06;105067;1271;62072;-24
2022/08/25 06:33:44;;;;;;;13.30;4.30;;;;;;;22.55;51.85;99268.56;104805;1272;61876;-23
2022/08/25 06:36:11;;;;;;;12.70;3.50;;;;;;;22.59;51.46;99267.64;105059;1271;76327;-23
2022/08/25 06:38:38;;;;;;;9.90;3.60;;;;;;;22.67;51.71;99266.41;104944;1271;74988;-23
2022/08/25 06:41:05;;;;;;;8.00;3.50;;;;;;;22.80;51.89;99264.45;105022;1271;74953;-23
2022/08/25 06:43:33;;;;;;;16.10;3.90;;;;;;;23.00;52.11;99262.89;104995;1271;62860;-25
2022/08/25 06:46:09;;;;;;;11.10;3.80;;;;;;;23.20;51.15;99264.82;105091;1272;61935;-24
2022/08/25 06:48:36;;;;;;;20.60;7.50;;;;;;;23.40;51.56;99263.55;105084;1271;75327;-24
2022/08/25 06:51:08;;;;;;;8.50;3.50;;;;;;;23.63;50.88;99264.43;105124;1271;76300;-24
2022/08/25 06:53:40;;;;;;;9.30;4.10;;;;;;;23.78;50.34;99265.70;105082;1271;75576;-24
2022/08/25 06:56:08;;;;;;;6.50;3.60;;;;;;;23.97;49.77;99263.88;104955;1271;62871;-24
2022/08/25 06:58:35;;;;;;;5.40;3.40;;;;;;;24.02;49.06;99263.88;104864;1271;63027;-24
2022/08/25 07:01:13;;;;;;;11.60;3.80;;;;;;;24.13;49.52;99263.08;104888;1271;76604;-24
2022/08/25 07:03:46;;;;;;;8.00;3.10;;;;;;;24.27;48.24;99263.90;104795;1271;75810;-24
2022/08/25 07:06:14;;;;;;;12.20;3.90;;;;;;;24.39;48.12;99261.31;104838;1274;74807;-24
2022/08/25 07:08:45;;;;;;;6.60;3.30;;;;;;;24.45;48.15;99263.80;105067;1271;62024;-24
2022/08/25 07:11:16;;;;;;;10.10;3.50;;;;;;;24.53;48.02;99259.66;104756;1272;63019;-24
2022/08/25 07:13:44;;;;;;;9.00;3.30;;;;;;;24.54;46.56;99260.19;104683;1274;76602;-24
2022/08/25 07:16:11;;;;;;;7.30;3.50;;;;;;;24.66;46.98;99264.94;105003;1271;77118;-24
2022/08/25 07:18:39;;;;;;;6.50;3.30;;;;;;;24.73;47.33;99265.17;105024;1271;73015;-24
2022/08/25 07:21:06;;;;;;;9.10;3.70;;;;;;;24.81;46.39;99260.94;105150;1273;62108;-24
2022/08/25 07:23:35;;;;;;;10.80;3.80;;;;;;;24.95;46.49;99261.56;105117;1271;62955;-23
2022/08/25 07:26:10;;;;;;;5.20;3.00;;;;;;;25.14;46.21;99258.05;104846;1272;75540;-24
2022/08/25 07:28:58;;;;;;;9.40;3.60;;;;;;;25.31;45.16;99258.82;105057;1271;76049;-23
2022/08/25 07:31:26;;;;;;;11.60;3.20;;;;;;;25.41;45.16;99258.86;104841;1271;74847;-25
2022/08/25 07:36:43;;;;;;;9.90;2.90;;;;;;;25.66;42.86;99253.79;105122;1271;61068;-23
2022/08/25 07:39:10;;;;;;;6.60;3.10;;;;;;;25.86;44.11;99252.14;104862;1271;75450;-23
2022/08/25 07:41:39;;;;;;;6.40;3.30;;;;;;;26.00;42.50;99250.18;104775;1271;74943;-23
2022/08/25 07:44:06;;;;;;;7.10;3.10;;;;;;;26.29;41.91;99249.20;104768;1271;73436;-23
2022/08/25 07:46:34;;;;;;;19.60;8.70;;;;;;;26.51;41.22;99247.20;105101;1271;61823;-23
2022/08/25 07:49:01;;;;;;;10.30;3.80;;;;;;;26.52;40.58;99239.54;105131;1272;61730;-23
2022/08/25 07:51:28;;;;;;;6.50;3.30;;;;;;;26.85;39.68;99239.68;104661;1275;75522;-23
2022/08/25 07:53:55;;;;;;;5.30;3.50;;;;;;;27.19;40.34;99241.91;105041;1271;75841;-23
2022/08/25 07:56:23;;;;;;;8.50;3.40;;;;;;;27.24;37.65;99238.13;105076;1271;74397;-23
2022/08/25 07:58:50;;;;;;;6.80;2.80;;;;;;;27.55;38.56;99233.27;104831;1272;62059;-23
2022/08/25 08:01:19;;;;;;;8.40;4.00;;;;;;;27.85;37.87;99230.17;104605;1271;61946;-23
2022/08/25 08:03:46;;;;;;;12.40;3.50;;;;;;;28.06;37.14;99228.81;104774;1271;75665;-23
2022/08/25 08:06:20;;;;;;;58.70;30.10;;;;;;;28.24;37.62;99230.67;104803;1271;76867;-23
2022/08/25 08:08:49;;;;;;;29.70;16.60;;;;;;;27.53;36.79;99224.65;104724;1271;75183;-23
2022/08/25 08:11:22;;;;;;;15.80;7.00;;;;;;;27.87;38.05;99226.99;105052;1271;62666;-24
2022/08/25 08:13:50;;;;;;;13.90;6.40;;;;;;;28.10;36.60;99225.55;104815;1271;63348;-24
2022/08/25 08:16:18;;;;;;;7.00;3.30;;;;;;;28.46;36.12;99226.45;105100;1271;75494;-23
2022/08/25 08:18:45;;;;;;;5.10;2.50;;;;;;;28.77;34.18;99223.58;104831;1274;76977;-23
2022/08/25 08:21:14;;;;;;;8.30;3.20;;;;;;;28.94;33.54;99223.08;104763;1272;75407;-23
2022/08/25 08:23:47;;;;;;;;;;;;;;;29.11;34.13;99219.40;104762;1271;61979;-24
2022/08/25 08:26:15;;;;;;;6.00;2.60;;;;;;;29.29;33.79;99217.54;104654;1275;62730;-22
2022/08/25 08:28:43;;;;;;;6.00;2.80;;;;;;;29.50;34.27;99217.17;104648;1274;75206;-23
2022/08/25 08:31:19;;;;;;;15.00;3.70;;;;;;;29.82;35.57;99215.40;105092;1271;76933;-23
2022/08/25 08:33:48;;;;;;;12.30;5.70;;;;;;;30.10;34.95;99214.39;105008;1271;75119;-23
2022/08/25 08:36:16;;;;;;;7.30;4.70;;;;;;;30.25;35.21;99212.19;104857;1271;61957;-23
2022/08/25 08:38:43;;;;;;;16.00;4.60;;;;;;;29.75;33.76;99217.94;104856;1274;62995;-23
2022/08/25 08:44:41;;;;;;;14.10;5.20;;;;;;;29.67;33.06;99212.20;105099;1272;77140;-23
2022/08/25 08:47:36;;;;;;;4.70;2.70;;;;;;;30.06;31.52;99212.39;105085;1271;74599;-23
2022/08/25 08:50:22;;;;;;;5.20;2.90;;;;;;;30.20;30.82;99206.65;104807;1274;62873;-23
2022/08/25 08:53:10;;;;;;;17.30;8.90;;;;;;;30.22;30.10;99199.86;105155;1271;62609;-23
2022/08/25 08:55:42;;;;;;;9.80;3.10;;;;;;;30.70;30.67;99203.75;104928;1271;75559;-23
2022/08/25 08:58:12;;;;;;;7.30;4.00;;;;;;;30.96;31.58;99201.02;104766;1271;74909;-25
2022/08/25 09:00:43;;;;;;;8.40;3.40;;;;;;;31.03;31.17;99200.76;104801;1271;73634;-25
2022/08/25 09:03:39;;;;;;;17.40;8.60;;;;;;;30.97;30.90;99195.70;104739;1271;62009;-25
2022/08/25 09:06:21;;;;;;;31.20;20.30;;;;;;;31.20;31.08;99191.20;104732;1272;61024;-25
2022/08/25 09:08:49;;;;;;;22.40;13.90;;;;;;;29.89;31.95;99187.64;104724;1272;75626;-25
2022/08/25 09:11:35;;;;;;;27.80;19.30;;;;;;;30.42;32.05;99187.13;103483;1271;1619001;-24
2022/08/25 09:14:31;;;;;;;10.60;3.90;;;;;;;31.21;31.59;99190.63;104764;1274;75362;-25
2022/08/25 09:17:03;;;;;;;12.80;8.70;;;;;;;31.34;30.52;99186.04;104766;1271;63003;-24
2022/08/25 09:19:37;;;;;;;23.80;14.00;;;;;;;31.32;29.41;99187.31;104674;1272;61866;-24
2022/08/25 09:22:27;;;;;;;13.10;3.80;;;;;;;30.73;29.97;99184.30;104726;1274;75278;-23
2022/08/25 09:25:09;;;;;;;4.00;2.30;;;;;;;31.67;28.36;99184.73;104711;1272;77165;-24
2022/08/25 09:28:07;;;;;;;13.10;7.70;;;;;;;31.99;28.11;99183.33;104676;1271;74757;-24
2022/08/25 09:30:44;;;;;;;7.60;3.00;;;;;;;32.06;28.96;99180.32;104716;1274;62178;-24
2022/08/25 09:33:12;;;;;;;6.90;2.30;;;;;;;32.40;26.96;99178.18;104654;1274;61135;-24
2022/08/25 09:35:46;;;;;;;6.00;2.30;;;;;;;32.37;26.89;99169.23;104662;1271;76556;-24
2022/08/25 09:38:15;;;;;;;8.50;2.50;;;;;;;32.71;26.65;99170.62;104795;1272;76686;-24
2022/08/25 09:40:46;;;;;;;12.30;2.60;;;;;;;32.60;26.59;99168.17;104694;1271;74131;-26
2022/08/25 09:43:23;;;;;;;6.30;2.20;;;;;;;33.06;26.05;99171.16;104729;1271;63065;-24
2022/08/25 09:45:57;;;;;;;4.70;2.30;;;;;;;33.41;27.03;99170.36;104667;1271;63047;-24
2022/08/25 09:48:36;;;;;;;27.70;13.80;;;;;;;33.73;26.01;99165.18;104675;1274;76640;-24
2022/08/25 09:51:10;;;;;;;30.70;17.40;;;;;;;32.67;27.74;99164.71;104682;1274;75770;-24
2022/08/25 09:53:47;;;;;;;10.10;5.00;;;;;;;31.77;28.42;99165.13;104773;1274;75235;-24
2022/08/25 09:56:15;;;;;;;6.40;3.30;;;;;;;32.09;27.88;99163.33;104750;1271;61896;-24
2022/08/25 09:58:42;;;;;;;9.00;4.70;;;;;;;32.68;28.10;99156.86;104725;1272;63182;-24
2022/08/25 10:01:20;;;;;;;4.90;2.50;;;;;;;33.39;26.68;99161.56;104861;1271;76497;-24
2022/08/25 10:04:08;;;;;;;8.80;4.90;;;;;;;33.65;25.53;99155.33;104753;1274;76992;-25
2022/08/25 10:06:46;;;;;;;5.00;2.60;;;;;;;33.62;25.82;99153.30;105069;1271;75378;-25
2022/08/25 10:09:24;;;;;;;6.70;3.00;;;;;;;33.89;25.15;99151.20;104689;1271;62078;-24
2022/08/25 10:11:51;;;;;;;10.10;3.00;;;;;;;34.39;25.48;99148.77;104584;1274;63125;-25
2022/08/25 10:14:23;;;;;;;3.40;2.20;;;;;;;34.74;23.44;99146.83;104927;1274;76307;-25
2022/08/25 10:16:53;;;;;;;4.40;2.10;;;;;;;34.91;22.33;99145.40;104759;1271;77029;-25
2022/08/25 10:19:22;;;;;;;8.80;2.30;;;;;;;35.02;21.69;99142.21;104684;1274;74304;-25
2022/08/25 10:22:10;;;;;;;9.00;2.40;;;;;;;35.08;21.67;99146.59;104780;1271;63061;-24
2022/08/25 10:24:38;;;;;;;8.60;2.20;;;;;;;35.05;22.73;99145.92;104731;1272;61865;-24
2022/08/25 10:27:18;;;;;;;;;;;;;;;34.74;21.68;99143.48;104690;1271;75355;-24
2022/08/25 10:30:16;;;;;;;4.90;2.40;;;;;;;34.79;21.36;99139.92;104746;1272;76765;-24
2022/08/25 10:33:14;;;;;;;9.40;2.90;;;;;;;34.70;21.83;99140.33;104678;1271;74360;-24
2022/08/25 10:35:58;;;;;;;11.70;6.00;;;;;;;34.71;22.67;99133.77;104714;1271;61481;-25
2022/08/25 10:38:37;;;;;;;5.10;1.90;;;;;;;34.66;21.60;99129.10;104660;1274;61597;-25
2022/08/25 10:41:31;;;;;;;9.00;1.80;;;;;;;35.01;21.85;99129.20;104793;1274;76740;-25
2022/08/25 10:47:37;;;;;;;7.10;1.70;;;;;;;34.74;21.33;99126.06;104718;1272;75360;-25
2022/08/25 10:50:30;;;;;;;5.10;1.90;;;;;;;34.59;20.59;99124.41;104770;1271;62052;-25
2022/08/25 10:53:21;;;;;;;6.70;2.10;;;;;;;35.15;21.58;99125.52;104677;1272;62993;-25
2022/08/25 10:56:07;;;;;;;5.30;2.40;;;;;;;35.12;20.77;99122.76;104849;1271;74836;-24
2022/08/25 10:59:42;;;;;;;7.30;2.20;;;;;;;34.85;21.09;99120.06;104712;1271;75763;-24
2022/08/25 11:02:38;;;;;;;7.40;2.40;;;;;;;34.61;20.57;99112.60;103874;1280;74443;-25
2022/08/25 11:05:35;;;;;;;3.70;2.10;;;;;;;35.04;20.98;99111.24;104955;1271;62024;-24
2022/08/25 11:08:10;;;;;;;6.50;1.70;;;;;;;35.37;20.11;99106.45;104659;1272;62808;-24
2022/08/25 11:10:39;;;;;;;2.90;1.70;;;;;;;35.41;20.44;99104.02;104632;1271;75591;-23
2022/08/25 11:13:14;;;;;;;3.00;1.60;;;;;;;35.41;18.82;99098.17;104672;1271;75790;-23
2022/08/25 11:15:49;;;;;;;10.50;1.70;;;;;;;35.28;18.71;99100.18;104697;1271;75492;-24
2022/08/25 11:18:38;;;;;;;5.70;1.70;;;;;;;35.29;17.61;99091.29;104646;1272;62169;-23
2022/08/25 11:21:10;;;;;;;5.00;2.20;;;;;;;35.18;18.40;99089.36;104746;1274;61086;-24
2022/08/25 11:23:43;;;;;;;7.10;2.10;;;;;;;34.76;18.49;99085.16;104576;1274;75635;-26
2022/08/25 11:26:12;;;;;;;4.00;1.80;;;;;;;34.60;19.70;99086.39;104723;1271;77024;-24
2022/08/25 11:28:46;;;;;;;5.00;1.90;;;;;;;34.76;18.86;99080.84;104677;1271;74383;-24
2022/08/25 11:31:14;;;;;;;4.90;1.30;;;;;;;34.58;18.71;99080.86;104764;1274;61781;-24
2022/08/25 11:33:42;;;;;;;6.30;1.50;;;;;;;34.40;18.52;99084.65;104715;1274;61768;-25
2022/08/25 11:36:27;;;;;;;7.20;1.70;;;;;;;34.34;18.61;99083.34;104633;1273;76595;-25
2022/08/25 11:38:59;;;;;;;4.00;1.20;;;;;;;34.19;17.05;99077.12;104739;1272;75852;-25
2022/08/25 11:41:52;;;;;;;3.60;1.00;;;;;;;33.91;17.03;99073.81;104785;1271;74097;-25
2022/08/25 11:44:31;;;;;;;4.80;1.10;;;;;;;33.86;17.23;99071.56;104605;1274;63348;-24
2022/08/25 11:46:59;;;;;;;8.60;1.30;;;;;;;33.57;17.78;99071.10;104683;1271;62412;-24
2022/08/25 11:49:41;;;;;;;4.80;1.20;;;;;;;33.21;18.42;99070.68;104662;1274;76731;-24
2022/08/25 11:52:37;;;;;;;4.00;1.10;;;;;;;33.35;18.23;99069.58;104750;1271;76199;-25
2022/08/25 11:55:39;;;;;;;5.60;2.40;;;;;;;33.34;18.63;99067.68;104742;1274;74298;-24
2022/08/25 11:58:26;;;;;;;4.90;1.40;;;;;;;33.25;17.84;99062.96;104414;1274;62128;-24